Heydar Aliyev — 9HFS7 — position and weather

sailwx.info

Track history (hours):
 
Tides and Currents Weather Stations Pressure Air Temp Water Temp Dewpoint Dewpoint Depression Visibility Wind Speed Wind Dir Waves Ship Positions

Heydar Aliyev

Last reported at 2018-May-17 03:43 UTC. Time now 2018-May-22 08:35 UTC.
Position N 31°27' E 032°20'.

Length 274 m; draft 15.2 m.

Type: Tanker. MMSI: 215213000.

Date/timePositionNaut miles runAvg speedWind from/ knotsBaromVisibWave heightAir tempDewpointWater temp
2018-May-17 03:43N 31°27' E 032°20'0 1.7
2018-May-17 03:28N 31°28' E 032°20'0 0.7
2018-May-17 02:57N 31°27' E 032°20'0 0.2
2018-May-17 02:27N 31°27' E 032°20'0 0.1
2018-May-17 02:00N 31°27' E 032°20'0 0.0
2018-May-16 21:21N 31°27' E 032°20'0 0.0
2018-May-16 20:51N 31°27' E 032°20'0 0.0
2018-May-16 20:15N 31°27' E 032°20'0 0.1
2018-May-16 20:00N 31°27' E 032°20'0 0.0
2018-May-16 19:16N 31°27' E 032°20'0 0.0
2018-May-16 19:00N 31°27' E 032°20'0 0.0
2018-May-16 18:29N 31°27' E 032°20'0 0.1
2018-May-16 18:00N 31°27' E 032°20'0 0.0
2018-May-16 17:30N 31°27' E 032°20'0 0.0
2018-May-16 16:38N 31°27' E 032°20'0 0.0
2018-May-16 16:23N 31°27' E 032°20'0 0.0
2018-May-16 15:59N 31°27' E 032°20'0 0.0
2018-May-16 15:29N 31°27' E 032°20'0 0.0
2018-May-16 14:59N 31°27' E 032°20'0 0.0
2018-May-16 14:31N 31°27' E 032°20'0 0.0
2018-May-16 13:58N 31°27' E 032°20'0 0.0
2018-May-16 12:58N 31°27' E 032°20'0 0.2
2018-May-16 12:07N 31°27' E 032°20'0 0.3
2018-May-16 11:58N 31°28' E 032°20'1 1.2
2018-May-16 11:30N 31°27' E 032°19'3 5.0
2018-May-16 10:55N 31°29' E 032°16'3 6.5
2018-May-16 10:30N 31°31' E 032°14'10 7.9
2018-May-16 09:14N 31°38' E 032°05'3 5.9
2018-May-16 08:40N 31°40' E 032°02'5312.5
2018-May-16 04:26N 32°02' E 031°06'813.1
2018-May-16 03:49N 32°04' E 030°57'1112.8
2018-May-16 02:57N 32°07' E 030°44'613.0
2018-May-16 02:30N 32°09' E 030°38'  
2018-May-08 13:36N 35°45' E 014°57'114.3
2018-May-08 13:30N 35°46' E 014°56'713.3
2018-May-08 13:00N 35°51' E 014°52'1 1.6
2018-May-08 12:28N 35°52' E 014°51'0 0.1
2018-May-08 11:40N 35°52' E 014°51'0 0.1
2018-May-08 11:28N 35°52' E 014°51'0 0.1
2018-May-08 10:58N 35°52' E 014°51'0 0.0
2018-May-08 10:25N 35°52' E 014°51'0 0.0
2018-May-08 09:58N 35°52' E 014°51'0 0.1
2018-May-08 09:25N 35°52' E 014°51'0 0.0
2018-May-08 08:58N 35°52' E 014°51'0 0.1
2018-May-08 08:28N 35°52' E 014°51'0 0.0
2018-May-08 07:58N 35°52' E 014°51'0 0.0
2018-May-08 07:28N 35°52' E 014°51'0 0.0
2018-May-08 06:58N 35°52' E 014°51'0 0.0
2018-May-08 06:28N 35°52' E 014°51'0 0.1
2018-May-08 05:58N 35°52' E 014°51'0 0.0
2018-May-08 05:28N 35°52' E 014°51'0 0.0
2018-May-08 04:58N 35°52' E 014°51'0 0.0
2018-May-08 04:28N 35°52' E 014°51'0 0.0
2018-May-08 03:58N 35°52' E 014°51'0 0.0
2018-May-08 03:28N 35°52' E 014°51'0 0.0
2018-May-08 02:58N 35°52' E 014°51'0 0.0
2018-May-08 02:28N 35°52' E 014°51'0 0.1
2018-May-08 01:58N 35°52' E 014°51'0 0.0
2018-May-08 01:28N 35°52' E 014°51'0 0.0
2018-May-08 00:58N 35°52' E 014°51'0 0.0
2018-May-08 00:28N 35°52' E 014°51'0 0.1
2018-May-07 23:58N 35°52' E 014°51'0 0.0
2018-May-07 23:25N 35°52' E 014°51'0 0.0
2018-May-07 22:58N 35°52' E 014°51'0 0.0
2018-May-07 21:19N 35°52' E 014°51'0 0.1
2018-May-07 20:58N 35°52' E 014°51'0 0.0
2018-May-07 20:28N 35°52' E 014°51'0 0.1
2018-May-07 19:55N 35°52' E 014°51'0 0.1
2018-May-07 19:28N 35°52' E 014°51'0 0.1
2018-May-07 18:58N 35°52' E 014°51'0 0.1
2018-May-07 18:28N 35°52' E 014°51'0 0.1
2018-May-07 17:58N 35°52' E 014°51'0 0.1
2018-May-07 17:28N 35°52' E 014°51'0 0.1
2018-May-07 16:58N 35°52' E 014°51'0 0.0
2018-May-07 16:28N 35°52' E 014°51'0 0.0
2018-May-07 15:58N 35°52' E 014°51'0 0.0
2018-May-07 15:28N 35°52' E 014°51'0 0.0
2018-May-07 14:58N 35°52' E 014°51'0 0.0
2018-May-07 14:28N 35°52' E 014°51'0 0.0
2018-May-07 13:58N 35°52' E 014°51'0 0.0
2018-May-07 13:28N 35°52' E 014°51'0 0.0
2018-May-07 12:58N 35°52' E 014°51'0 0.0
2018-May-07 12:28N 35°52' E 014°51'0 0.0
2018-May-07 11:58N 35°52' E 014°51'0 0.0
2018-May-07 11:28N 35°52' E 014°51'0 0.0
2018-May-07 10:58N 35°52' E 014°51'0 0.1
2018-May-07 10:28N 35°52' E 014°51'0 0.0
2018-May-07 09:58N 35°52' E 014°51'0 0.0
2018-May-07 09:28N 35°52' E 014°51'0 0.0
2018-May-07 08:58N 35°52' E 014°51'0 0.1
2018-May-07 08:25N 35°52' E 014°51'0 0.1
2018-May-07 07:58N 35°52' E 014°51'0 0.0
2018-May-07 07:28N 35°52' E 014°51'0 0.0
2018-May-07 06:58N 35°52' E 014°51'0 0.0
2018-May-07 06:28N 35°52' E 014°51'0 0.1
2018-May-07 05:58N 35°52' E 014°51'0 0.1
2018-May-07 05:28N 35°52' E 014°51'0 0.0
2018-May-07 04:58N 35°52' E 014°51'0 0.0
2018-May-07 04:28N 35°52' E 014°51'0 0.0
2018-May-07 03:58N 35°52' E 014°51'  
Track history (hours):
 
Tides and Currents Weather Stations Pressure Air Temp Water Temp Dewpoint Dewpoint Depression Visibility Wind Speed Wind Dir Waves Ship Positions

Heydar Aliyev

Last reported at 2018-May-17 03:43 UTC. Time now 2018-May-22 08:35 UTC.
Position N 31°27' E 032°20'.

Length 274 m; draft 15.2 m.

Type: Tanker. MMSI: 215213000.

Date/timePositionNaut miles runAvg speedWind from/ knotsBaromVisibWave heightAir tempDewpointWater temp
2018-May-17 03:43N 31°27' E 032°20'0 1.7
2018-May-17 03:28N 31°28' E 032°20'0 0.7
2018-May-17 02:57N 31°27' E 032°20'0 0.2
2018-May-17 02:27N 31°27' E 032°20'0 0.1
2018-May-17 02:00N 31°27' E 032°20'0 0.0
2018-May-16 21:21N 31°27' E 032°20'0 0.0
2018-May-16 20:51N 31°27' E 032°20'0 0.0
2018-May-16 20:15N 31°27' E 032°20'0 0.1
2018-May-16 20:00N 31°27' E 032°20'0 0.0
2018-May-16 19:16N 31°27' E 032°20'0 0.0
2018-May-16 19:00N 31°27' E 032°20'0 0.0
2018-May-16 18:29N 31°27' E 032°20'0 0.1
2018-May-16 18:00N 31°27' E 032°20'0 0.0
2018-May-16 17:30N 31°27' E 032°20'0 0.0
2018-May-16 16:38N 31°27' E 032°20'0 0.0
2018-May-16 16:23N 31°27' E 032°20'0 0.0
2018-May-16 15:59N 31°27' E 032°20'0 0.0
2018-May-16 15:29N 31°27' E 032°20'0 0.0
2018-May-16 14:59N 31°27' E 032°20'0 0.0
2018-May-16 14:31N 31°27' E 032°20'0 0.0
2018-May-16 13:58N 31°27' E 032°20'0 0.0
2018-May-16 12:58N 31°27' E 032°20'0 0.2
2018-May-16 12:07N 31°27' E 032°20'0 0.3
2018-May-16 11:58N 31°28' E 032°20'1 1.2
2018-May-16 11:30N 31°27' E 032°19'3 5.0
2018-May-16 10:55N 31°29' E 032°16'3 6.5
2018-May-16 10:30N 31°31' E 032°14'10 7.9
2018-May-16 09:14N 31°38' E 032°05'3 5.9
2018-May-16 08:40N 31°40' E 032°02'5312.5
2018-May-16 04:26N 32°02' E 031°06'813.1
2018-May-16 03:49N 32°04' E 030°57'1112.8
2018-May-16 02:57N 32°07' E 030°44'613.0
2018-May-16 02:30N 32°09' E 030°38'  
2018-May-08 13:36N 35°45' E 014°57'114.3
2018-May-08 13:30N 35°46' E 014°56'713.3
2018-May-08 13:00N 35°51' E 014°52'1 1.6
2018-May-08 12:28N 35°52' E 014°51'0 0.1
2018-May-08 11:40N 35°52' E 014°51'0 0.1
2018-May-08 11:28N 35°52' E 014°51'0 0.1
2018-May-08 10:58N 35°52' E 014°51'0 0.0
2018-May-08 10:25N 35°52' E 014°51'0 0.0
2018-May-08 09:58N 35°52' E 014°51'0 0.1
2018-May-08 09:25N 35°52' E 014°51'0 0.0
2018-May-08 08:58N 35°52' E 014°51'0 0.1
2018-May-08 08:28N 35°52' E 014°51'0 0.0
2018-May-08 07:58N 35°52' E 014°51'0 0.0
2018-May-08 07:28N 35°52' E 014°51'0 0.0
2018-May-08 06:58N 35°52' E 014°51'0 0.0
2018-May-08 06:28N 35°52' E 014°51'0 0.1
2018-May-08 05:58N 35°52' E 014°51'0 0.0
2018-May-08 05:28N 35°52' E 014°51'0 0.0
2018-May-08 04:58N 35°52' E 014°51'0 0.0
2018-May-08 04:28N 35°52' E 014°51'0 0.0
2018-May-08 03:58N 35°52' E 014°51'0 0.0
2018-May-08 03:28N 35°52' E 014°51'0 0.0
2018-May-08 02:58N 35°52' E 014°51'0 0.0
2018-May-08 02:28N 35°52' E 014°51'0 0.1
2018-May-08 01:58N 35°52' E 014°51'0 0.0
2018-May-08 01:28N 35°52' E 014°51'0 0.0
2018-May-08 00:58N 35°52' E 014°51'0 0.0
2018-May-08 00:28N 35°52' E 014°51'0 0.1
2018-May-07 23:58N 35°52' E 014°51'0 0.0
2018-May-07 23:25N 35°52' E 014°51'0 0.0
2018-May-07 22:58N 35°52' E 014°51'0 0.0
2018-May-07 21:19N 35°52' E 014°51'0 0.1
2018-May-07 20:58N 35°52' E 014°51'0 0.0
2018-May-07 20:28N 35°52' E 014°51'0 0.1
2018-May-07 19:55N 35°52' E 014°51'0 0.1
2018-May-07 19:28N 35°52' E 014°51'0 0.1
2018-May-07 18:58N 35°52' E 014°51'0 0.1
2018-May-07 18:28N 35°52' E 014°51'0 0.1
2018-May-07 17:58N 35°52' E 014°51'0 0.1
2018-May-07 17:28N 35°52' E 014°51'0 0.1
2018-May-07 16:58N 35°52' E 014°51'0 0.0
2018-May-07 16:28N 35°52' E 014°51'0 0.0
2018-May-07 15:58N 35°52' E 014°51'0 0.0
2018-May-07 15:28N 35°52' E 014°51'0 0.0
2018-May-07 14:58N 35°52' E 014°51'0 0.0
2018-May-07 14:28N 35°52' E 014°51'0 0.0
2018-May-07 13:58N 35°52' E 014°51'0 0.0
2018-May-07 13:28N 35°52' E 014°51'0 0.0
2018-May-07 12:58N 35°52' E 014°51'0 0.0
2018-May-07 12:28N 35°52' E 014°51'0 0.0
2018-May-07 11:58N 35°52' E 014°51'0 0.0
2018-May-07 11:28N 35°52' E 014°51'0 0.0
2018-May-07 10:58N 35°52' E 014°51'0 0.1
2018-May-07 10:28N 35°52' E 014°51'0 0.0
2018-May-07 09:58N 35°52' E 014°51'0 0.0
2018-May-07 09:28N 35°52' E 014°51'0 0.0
2018-May-07 08:58N 35°52' E 014°51'0 0.1
2018-May-07 08:25N 35°52' E 014°51'0 0.1
2018-May-07 07:58N 35°52' E 014°51'0 0.0
2018-May-07 07:28N 35°52' E 014°51'0 0.0
2018-May-07 06:58N 35°52' E 014°51'0 0.0
2018-May-07 06:28N 35°52' E 014°51'0 0.1
2018-May-07 05:58N 35°52' E 014°51'0 0.1
2018-May-07 05:28N 35°52' E 014°51'0 0.0
2018-May-07 04:58N 35°52' E 014°51'0 0.0
2018-May-07 04:28N 35°52' E 014°51'0 0.0
2018-May-07 03:58N 35°52' E 014°51'  

Dump ship's entire track history